Time;durP1;ratioP1;P1;durP2;ratioP2;P2;SDS_P1;SDS_P2;PMS_P1;PMS_P2;Temp;Humidity;BMP_temperature;BMP_pressure;BME280_temperature;BME280_humidity;BME280_pressure;Samples;Min_cycle;Max_cycle;Signal;HPM_P1;HPM_P2
2021/05/19 00:01:41;;;;;;;17.42;15.73;;;;;;;13.59;96.36;99127.22;3577059;40;20041;-66
2021/05/19 00:04:09;;;;;;;12.48;11.18;;;;;;;13.65;96.39;99108.19;3576654;40;20072;-61
2021/05/19 00:06:37;;;;;;;12.95;11.65;;;;;;;13.69;95.75;99100.84;3576822;40;20440;-62
2021/05/19 00:09:08;;;;;;;13.02;11.75;;;;;;;13.71;95.24;99099.69;3577113;40;20049;-61
2021/05/19 00:11:36;;;;;;;17.95;16.00;;;;;;;13.71;94.85;99102.31;3577027;40;20059;-62
2021/05/19 00:14:05;;;;;;;19.70;17.52;;;;;;;13.68;94.32;99112.34;3576812;40;20045;-62
2021/05/19 00:16:33;;;;;;;18.92;17.02;;;;;;;13.58;95.75;99120.34;3576886;40;20065;-60
2021/05/19 00:19:00;;;;;;;20.00;17.95;;;;;;;13.59;95.25;99119.34;3577003;40;20056;-61
2021/05/19 00:21:27;;;;;;;15.90;14.30;;;;;;;13.56;95.74;99112.59;3584185;40;20044;-61
2021/05/19 00:23:55;;;;;;;15.45;13.85;;;;;;;13.56;94.79;99109.16;3576337;40;20061;-60
2021/05/19 00:26:24;;;;;;;17.48;15.65;;;;;;;13.53;94.71;99118.19;3577000;40;20064;-61
2021/05/19 00:28:56;;;;;;;15.55;13.95;;;;;;;13.54;94.54;99122.44;3577274;40;20058;-62
2021/05/19 00:31:27;;;;;;;21.35;19.35;;;;;;;13.58;93.65;99120.34;3576861;40;20053;-61
2021/05/19 00:33:55;;;;;;;15.70;14.13;;;;;;;13.57;93.86;99129.16;3577051;40;20130;-62
2021/05/19 00:36:22;;;;;;;20.58;18.48;;;;;;;13.53;93.66;99143.59;3577095;40;20158;-62
2021/05/19 00:38:50;;;;;;;82.45;42.72;;;;;;;13.52;93.12;99127.00;3576612;40;20089;-63
2021/05/19 00:53:59;;;;;;;15.48;13.98;;;;;;;14.08;89.18;99151.06;3625601;31;20737;-62
2021/05/19 00:56:27;;;;;;;13.25;11.90;;;;;;;13.84;89.58;99154.44;3625890;39;20123;-62
2021/05/19 00:58:58;;;;;;;16.13;14.40;;;;;;;13.70;90.72;99158.47;3616236;39;20127;-61
2021/05/19 01:01:26;;;;;;;14.20;12.35;;;;;;;13.62;90.46;99166.31;3628862;39;20042;-62
2021/05/19 01:04:04;;;;;;;11.75;10.65;;;;;;;13.53;90.66;99159.34;3625579;39;20464;-62
2021/05/19 01:06:54;;;;;;;11.40;10.20;;;;;;;13.46;90.39;99164.44;3625241;39;20396;-64
2021/05/19 01:09:35;;;;;;;11.73;10.15;;;;;;;13.29;90.10;99163.53;3625244;39;20086;-63
2021/05/19 01:12:05;;;;;;;12.23;10.95;;;;;;;13.23;89.88;99168.53;3634855;39;20083;-65
2021/05/19 01:14:33;;;;;;;16.98;15.30;;;;;;;13.18;89.75;99168.16;3635027;39;20082;-62
2021/05/19 01:17:01;;;;;;;17.20;15.50;;;;;;;13.11;90.51;99167.13;3634380;39;20659;-64
2021/05/19 01:19:30;;;;;;;12.57;11.27;;;;;;;13.07;90.09;99167.44;3634632;39;20049;-61
2021/05/19 01:22:06;;;;;;;25.80;14.60;;;;;;;13.01;90.92;99172.47;3634850;39;20408;-63
2021/05/19 01:24:36;;;;;;;12.55;11.20;;;;;;;12.92;90.57;99176.00;3635250;39;20401;-62
2021/05/19 01:27:05;;;;;;;13.52;12.23;;;;;;;12.83;90.24;99177.75;3634907;39;20047;-61
2021/05/19 01:29:34;;;;;;;12.25;11.05;;;;;;;12.78;90.23;99172.94;3634655;39;20045;-63
2021/05/19 01:32:03;;;;;;;13.27;11.98;;;;;;;12.74;90.38;99170.78;3634897;39;20062;-68
2021/05/19 01:34:31;;;;;;;11.80;10.60;;;;;;;12.76;90.04;99177.50;3634764;39;20047;-63
2021/05/19 01:36:58;;;;;;;11.40;10.20;;;;;;;12.75;90.59;99185.53;3624941;39;20058;-62
2021/05/19 01:39:26;;;;;;;16.05;14.35;;;;;;;12.72;90.71;99188.44;3626003;39;20062;-62
2021/05/19 01:41:54;;;;;;;12.93;11.00;;;;;;;12.72;90.88;99191.06;3625246;39;20127;-63
2021/05/19 01:44:21;;;;;;;10.60;9.48;;;;;;;12.75;90.83;99196.03;3621420;39;20114;-63
2021/05/19 01:47:08;;;;;;;18.02;15.95;;;;;;;12.75;91.47;99196.03;3634915;39;20049;-62
2021/05/19 01:49:42;;;;;;;12.50;11.20;;;;;;;12.75;91.30;99207.34;3625057;39;20054;-62
2021/05/19 01:52:12;;;;;;;16.38;11.35;;;;;;;12.72;91.97;99193.69;3633983;39;20042;-62
2021/05/19 01:54:42;;;;;;;14.35;12.88;;;;;;;12.73;91.55;99195.38;3628783;39;20071;-62
2021/05/19 01:57:10;;;;;;;13.43;11.35;;;;;;;12.73;90.96;99187.50;3627944;39;20137;-61
2021/05/19 01:59:41;;;;;;;18.27;16.30;;;;;;;12.74;90.96;99194.38;3617904;39;20046;-63
2021/05/19 02:02:09;;;;;;;22.02;19.25;;;;;;;12.74;91.41;99191.75;3627692;39;20392;-62
2021/05/19 02:04:40;;;;;;;17.70;15.32;;;;;;;12.70;92.28;99191.22;3627404;39;20049;-62
2021/05/19 02:07:09;;;;;;;17.55;15.13;;;;;;;12.69;92.59;99197.47;3609475;39;20050;-62
2021/05/19 02:09:41;;;;;;;16.92;14.65;;;;;;;12.72;92.17;99193.69;3627398;39;20359;-63
2021/05/19 02:12:12;;;;;;;20.05;16.30;;;;;;;12.74;92.35;99191.75;3627568;39;20124;-64
2021/05/19 02:14:41;;;;;;;15.60;13.88;;;;;;;12.75;92.28;99202.09;3627925;39;20076;-63
2021/05/19 02:17:09;;;;;;;20.08;17.92;;;;;;;12.80;91.76;99212.13;3627654;39;20059;-62
2021/05/19 02:19:38;;;;;;;16.58;14.05;;;;;;;12.84;92.23;99215.28;3627749;39;20439;-62
2021/05/19 02:22:08;;;;;;;18.63;16.65;;;;;;;12.87;92.17;99210.56;3627516;39;20046;-62
2021/05/19 02:24:52;;;;;;;16.42;14.20;;;;;;;12.92;92.21;99215.38;3619247;39;20408;-62
2021/05/19 02:27:20;;;;;;;21.75;19.35;;;;;;;12.96;92.52;99219.31;3618382;39;20413;-62
2021/05/19 02:29:56;;;;;;;17.88;15.90;;;;;;;12.99;91.93;99219.84;3608483;39;20047;-62
2021/05/19 02:32:26;;;;;;;14.45;12.95;;;;;;;13.02;92.84;99219.56;3608791;39;20055;-62
2021/05/19 02:34:57;;;;;;;16.45;14.70;;;;;;;13.05;93.33;99214.03;3608817;39;20132;-62
2021/05/19 02:37:24;;;;;;;18.95;16.95;;;;;;;13.05;94.03;99221.91;3619160;39;20389;-62
2021/05/19 02:39:52;;;;;;;16.58;14.85;;;;;;;13.11;93.25;99214.38;3617741;39;20059;-62
2021/05/19 02:42:19;;;;;;;18.00;16.15;;;;;;;13.15;92.71;99213.06;3618157;39;20139;-62
2021/05/19 02:44:49;;;;;;;15.60;14.00;;;;;;;13.18;93.12;99207.53;3616295;39;20051;-62
2021/05/19 02:47:16;;;;;;;23.52;21.05;;;;;;;13.13;93.16;99218.50;3627574;39;20066;-62
2021/05/19 02:49:44;;;;;;;22.85;20.55;;;;;;;13.19;93.28;99219.69;3626994;39;20043;-62
2021/05/19 02:52:11;;;;;;;20.33;18.23;;;;;;;13.21;93.34;99236.13;3627320;39;20069;-62
2021/05/19 02:54:39;;;;;;;19.05;16.40;;;;;;;13.24;93.59;99230.56;3627622;39;20047;-62
2021/05/19 02:57:07;;;;;;;18.85;16.92;;;;;;;13.28;93.25;99245.06;3627651;39;20063;-62
2021/05/19 02:59:35;;;;;;;18.73;16.65;;;;;;;13.31;93.25;99239.50;3626902;39;20051;-62
2021/05/19 03:02:03;;;;;;;20.05;17.10;;;;;;;13.33;93.90;99227.03;3617314;39;20046;-62
2021/05/19 03:04:31;;;;;;;21.58;19.30;;;;;;;13.35;93.79;99224.28;3627099;39;20393;-62
2021/05/19 03:06:58;;;;;;;23.85;21.33;;;;;;;13.35;94.23;99240.03;3627030;39;20361;-62
2021/05/19 03:09:26;;;;;;;22.10;19.35;;;;;;;13.38;94.79;99237.09;3610550;39;20051;-63
2021/05/19 03:11:53;;;;;;;25.77;22.83;;;;;;;13.39;95.30;99202.81;3618016;39;20043;-62
2021/05/19 03:14:20;;;;;;;21.83;19.17;;;;;;;13.41;95.03;99158.00;3618119;39;20063;-62
2021/05/19 03:16:48;;;;;;;29.27;23.90;;;;;;;13.42;94.40;99157.81;3618092;39;20369;-62
2021/05/19 03:19:15;;;;;;;25.55;22.75;;;;;;;13.36;95.34;99165.53;3608588;39;20055;-64
2021/05/19 03:21:44;;;;;;;20.10;17.98;;;;;;;13.41;95.64;99182.44;3608687;39;20059;-63
2021/05/19 03:24:12;;;;;;;22.58;19.58;;;;;;;13.49;95.65;99192.19;3618226;39;20091;-63
2021/05/19 03:26:40;;;;;;;18.23;16.33;;;;;;;13.54;95.98;99203.06;3625989;39;20043;-62
2021/05/19 03:29:07;;;;;;;16.25;14.07;;;;;;;13.60;95.51;99185.84;3627236;39;20058;-63
2021/05/19 03:31:35;;;;;;;16.92;14.57;;;;;;;13.66;95.60;99174.72;3627129;39;20062;-62
2021/05/19 03:34:02;;;;;;;17.70;15.05;;;;;;;13.73;96.03;99175.75;3626915;39;20123;-62
2021/05/19 03:36:30;;;;;;;17.25;15.45;;;;;;;13.80;95.80;99184.63;3627010;39;20097;-62
2021/05/19 03:38:57;;;;;;;17.40;15.60;;;;;;;13.87;95.40;99183.03;3620014;39;20093;-61
2021/05/19 03:41:24;;;;;;;18.08;16.17;;;;;;;13.95;94.58;99190.94;3617583;39;20051;-66
2021/05/19 03:43:54;;;;;;;17.52;15.60;;;;;;;14.01;95.74;99200.84;3617916;39;20071;-61
2021/05/19 03:46:21;;;;;;;15.13;13.52;;;;;;;14.08;95.33;99206.28;3617938;39;20494;-63
2021/05/19 03:48:53;;;;;;;15.48;13.65;;;;;;;14.17;94.51;99191.34;3617716;39;20066;-62
2021/05/19 03:51:21;;;;;;;16.20;14.25;;;;;;;14.23;95.67;99196.78;3617837;39;20062;-63
2021/05/19 03:53:48;;;;;;;18.08;16.27;;;;;;;14.32;95.28;99195.00;3617772;39;20036;-62
2021/05/19 03:56:16;;;;;;;14.27;12.52;;;;;;;14.41;94.71;99195.88;3617899;39;20047;-62
2021/05/19 03:58:44;;;;;;;15.38;13.77;;;;;;;14.48;94.91;99189.84;3617878;39;20043;-62
2021/05/19 04:01:12;;;;;;;13.13;11.73;;;;;;;14.55;94.31;99190.81;3617603;39;20058;-63
2021/05/19 04:03:39;;;;;;;20.85;18.60;;;;;;;14.61;93.75;99197.25;3617698;39;20417;-62
2021/05/19 04:06:07;;;;;;;22.40;18.27;;;;;;;14.64;94.84;99207.44;3617819;39;20087;-63
2021/05/19 04:08:39;;;;;;;17.13;15.43;;;;;;;14.75;94.33;99204.50;3617668;39;20058;-63
2021/05/19 04:11:08;;;;;;;15.35;13.75;;;;;;;14.83;94.50;99196.63;3617928;39;20051;-62
2021/05/19 04:13:36;;;;;;;17.40;15.60;;;;;;;14.89;94.13;99191.69;3618546;39;20059;-63
2021/05/19 04:16:04;;;;;;;18.48;16.60;;;;;;;14.88;94.44;99208.47;3617331;39;20136;-64
2021/05/19 04:18:32;;;;;;;18.88;16.98;;;;;;;14.88;93.49;99208.47;3626456;39;20062;-64
2021/05/19 04:21:05;;;;;;;15.68;14.10;;;;;;;14.94;93.58;99192.84;3626828;39;20050;-62
2021/05/19 04:23:34;;;;;;;14.52;12.90;;;;;;;14.98;93.88;99190.69;3626735;39;20063;-66
2021/05/19 04:26:02;;;;;;;14.13;12.73;;;;;;;15.06;93.22;99194.16;3626500;39;20083;-62
2021/05/19 04:28:29;;;;;;;13.85;12.45;;;;;;;15.11;93.95;99177.88;3626732;39;20046;-67
2021/05/19 04:30:56;;;;;;;16.58;14.88;;;;;;;15.18;93.20;99157.75;3626781;39;20049;-62
2021/05/19 04:33:24;;;;;;;15.85;14.25;;;;;;;15.20;92.23;99152.34;3626717;39;20086;-63
2021/05/19 04:35:51;;;;;;;16.23;14.63;;;;;;;15.24;92.77;99165.00;3625345;39;20059;-61
2021/05/19 04:38:19;;;;;;;12.90;11.60;;;;;;;15.25;92.14;99161.38;3622057;39;20436;-66
2021/05/19 04:40:47;;;;;;;14.35;12.20;;;;;;;15.27;92.18;99156.75;3617610;39;20051;-60
2021/05/19 04:43:14;;;;;;;11.38;10.18;;;;;;;15.31;92.56;99168.59;3617241;39;20312;-68
2021/05/19 04:45:42;;;;;;;15.77;14.18;;;;;;;15.17;93.31;99182.47;3617401;39;20051;-62
2021/05/19 04:48:10;;;;;;;12.55;11.27;;;;;;;15.24;92.65;99164.16;3619029;39;20066;-62
2021/05/19 04:50:38;;;;;;;11.20;10.10;;;;;;;15.30;92.65;99150.34;3626556;39;20035;-61
2021/05/19 04:53:10;;;;;;;13.55;12.15;;;;;;;15.29;92.34;99135.53;3617176;39;20129;-65
2021/05/19 04:55:38;;;;;;;12.80;11.50;;;;;;;15.30;92.18;99145.91;3617383;39;20055;-62
2021/05/19 04:58:06;;;;;;;15.30;13.77;;;;;;;15.32;92.02;99145.72;3617617;39;20051;-66
2021/05/19 05:00:36;;;;;;;14.13;12.63;;;;;;;15.30;92.48;99148.53;3617204;39;20055;-61
2021/05/19 05:03:10;;;;;;;15.52;13.95;;;;;;;15.35;93.22;99163.84;3617101;39;20353;-62
2021/05/19 05:05:37;;;;;;;15.02;12.75;;;;;;;15.33;92.46;99163.16;3617503;39;20046;-62
2021/05/19 05:08:05;;;;;;;15.25;13.65;;;;;;;15.40;92.34;99160.69;3626140;39;20304;-70
2021/05/19 05:10:32;;;;;;;13.20;11.90;;;;;;;15.42;92.42;99164.78;3626391;39;20062;-60
2021/05/19 05:13:00;;;;;;;12.40;10.35;;;;;;;15.40;92.25;99176.50;3626190;39;20047;-69
2021/05/19 05:15:27;;;;;;;11.30;10.20;;;;;;;15.45;92.30;99163.66;3626262;39;20424;-61
2021/05/19 05:17:54;;;;;;;13.85;12.45;;;;;;;15.49;91.98;99147.34;3626128;39;20054;-68
2021/05/19 05:20:24;;;;;;;11.98;9.98;;;;;;;15.60;91.83;99138.22;3626331;39;20328;-61
2021/05/19 05:22:51;;;;;;;13.98;12.65;;;;;;;15.66;92.52;99134.94;3626489;39;20065;-62
2021/05/19 05:25:20;;;;;;;13.15;11.85;;;;;;;15.75;91.59;99118.09;3626009;39;20050;-61
2021/05/19 05:27:49;;;;;;;12.52;10.20;;;;;;;15.81;91.26;99101.63;3626365;39;20051;-61
2021/05/19 05:30:17;;;;;;;11.73;10.52;;;;;;;15.86;90.79;99091.38;3627740;39;20092;-61
2021/05/19 05:32:45;;;;;;;11.15;9.77;;;;;;;15.91;90.40;99082.13;3627432;39;20432;-61
2021/05/19 05:35:13;;;;;;;11.50;10.30;;;;;;;15.95;90.32;99078.97;3618583;39;20054;-61
2021/05/19 05:37:40;;;;;;;11.70;9.88;;;;;;;15.91;90.36;99087.41;3620768;39;20065;-60
2021/05/19 05:40:08;;;;;;;11.35;10.25;;;;;;;15.96;90.61;99104.34;3627998;39;20431;-60
2021/05/19 05:42:36;;;;;;;11.68;10.57;;;;;;;15.97;90.68;99120.97;3627035;39;20123;-61
2021/05/19 05:45:05;;;;;;;10.85;9.73;;;;;;;16.06;91.07;99114.66;3627619;39;20054;-62
2021/05/19 05:47:33;;;;;;;45.58;29.17;;;;;;;16.13;90.11;99105.88;3627435;39;20335;-63
2021/05/19 05:50:03;;;;;;;18.10;14.57;;;;;;;16.22;89.83;99092.63;3627439;39;20099;-62
2021/05/19 05:52:31;;;;;;;13.48;11.35;;;;;;;16.28;89.36;99071.63;3609032;39;20032;-61
2021/05/19 05:54:59;;;;;;;11.13;10.02;;;;;;;16.30;88.89;99077.59;3618480;39;20143;-63
2021/05/19 05:57:27;;;;;;;12.43;11.15;;;;;;;16.36;88.62;99090.06;3618716;39;20047;-63
2021/05/19 05:59:55;;;;;;;11.68;10.55;;;;;;;16.47;88.85;99072.97;3618420;39;20056;-62
2021/05/19 06:02:22;;;;;;;78.63;55.85;;;;;;;16.59;88.34;99073.41;3618333;39;20043;-65
2021/05/19 06:04:49;;;;;;;18.90;13.63;;;;;;;16.62;87.99;99075.69;3618324;39;20047;-62
2021/05/19 06:07:17;;;;;;;16.02;11.88;;;;;;;16.65;87.84;99089.34;3618802;39;20405;-61
2021/05/19 06:09:51;;;;;;;13.68;12.23;;;;;;;16.72;88.35;99093.97;3618486;39;20054;-67
2021/05/19 06:12:21;;;;;;;13.35;12.02;;;;;;;16.74;88.19;99091.94;3618426;39;20139;-62
2021/05/19 06:14:49;;;;;;;14.15;12.23;;;;;;;16.77;88.26;99073.13;3618447;39;20043;-61
2021/05/19 06:17:16;;;;;;;13.27;11.88;;;;;;;16.70;87.24;99062.41;3618457;39;20054;-61
2021/05/19 06:19:45;;;;;;;15.88;13.13;;;;;;;16.74;88.22;99057.63;3618506;39;20065;-62
2021/05/19 06:22:12;;;;;;;13.65;12.05;;;;;;;16.89;86.64;99051.34;3618456;39;20055;-63
2021/05/19 06:24:40;;;;;;;14.65;12.98;;;;;;;17.04;87.22;99047.91;3618268;39;20047;-63
2021/05/19 06:27:07;;;;;;;13.10;11.80;;;;;;;17.15;87.59;99052.75;3618422;39;20039;-64
2021/05/19 06:29:34;;;;;;;14.02;11.40;;;;;;;17.19;86.52;99046.09;3618293;39;20050;-60
2021/05/19 06:32:02;;;;;;;14.50;13.10;;;;;;;17.29;86.48;99046.66;3618471;39;20132;-61
2021/05/19 06:34:31;;;;;;;14.75;13.05;;;;;;;17.32;86.50;99053.38;3627343;39;20102;-63
2021/05/19 06:36:58;;;;;;;12.25;11.05;;;;;;;17.40;86.48;99040.88;3627346;39;20058;-64
2021/05/19 06:39:25;;;;;;;12.77;11.48;;;;;;;17.52;86.24;99041.25;3618633;39;20286;-61
2021/05/19 06:41:53;;;;;;;38.42;24.00;;;;;;;17.46;85.29;99031.41;3618614;39;20397;-64
2021/05/19 06:44:20;;;;;;;24.00;17.83;;;;;;;17.49;85.37;99028.38;3622295;39;20046;-62
2021/05/19 06:46:49;;;;;;;16.02;13.50;;;;;;;17.57;85.84;99030.13;3618044;39;20055;-64
2021/05/19 06:49:18;;;;;;;16.33;12.98;;;;;;;17.66;85.89;99035.13;3618334;39;20059;-66
2021/05/19 06:51:46;;;;;;;14.43;12.68;;;;;;;17.73;86.55;99024.63;3618018;39;20439;-64
2021/05/19 06:54:13;;;;;;;13.15;11.75;;;;;;;17.91;86.95;99005.72;3618105;39;20055;-63
2021/05/19 06:56:45;;;;;;;13.70;12.15;;;;;;;18.03;85.50;99012.13;3618216;39;20058;-63
2021/05/19 06:59:15;;;;;;;13.32;11.93;;;;;;;18.26;84.54;99000.53;3617879;39;20420;-63
2021/05/19 07:01:42;;;;;;;14.57;13.02;;;;;;;18.38;84.42;98994.53;3618208;39;20278;-64
2021/05/19 07:04:10;;;;;;;12.98;11.65;;;;;;;18.57;84.86;98990.41;3618119;39;20637;-64
2021/05/19 07:06:37;;;;;;;12.38;11.18;;;;;;;18.70;83.95;98988.88;3618192;39;20103;-63
2021/05/19 07:09:05;;;;;;;12.02;10.90;;;;;;;18.87;83.16;98988.38;3626022;39;20348;-63
2021/05/19 07:11:33;;;;;;;13.13;11.80;;;;;;;18.84;82.33;98985.28;3627361;39;20054;-65
2021/05/19 07:14:02;;;;;;;11.80;10.38;;;;;;;18.86;81.21;98984.09;3627478;39;20054;-62
2021/05/19 07:16:33;;;;;;;14.07;11.55;;;;;;;18.77;82.19;98981.78;3626934;39;20047;-62
2021/05/19 07:19:00;;;;;;;13.52;11.60;;;;;;;18.89;80.62;98969.63;3618215;39;20120;-62
2021/05/19 07:21:27;;;;;;;14.20;11.85;;;;;;;19.04;79.83;98973.00;3618009;39;20066;-62
2021/05/19 07:23:57;;;;;;;13.30;11.93;;;;;;;19.14;80.73;98969.97;3617908;39;20409;-65
2021/05/19 07:26:25;;;;;;;12.85;10.68;;;;;;;19.42;80.36;98957.44;3627064;39;20058;-64
2021/05/19 07:28:52;;;;;;;22.83;15.65;;;;;;;19.74;79.62;98957.75;3626889;39;20045;-63
2021/05/19 07:31:20;;;;;;;56.05;25.75;;;;;;;19.93;80.32;98964.91;3627274;39;20061;-62
2021/05/19 07:33:48;;;;;;;37.45;19.25;;;;;;;20.31;80.56;98958.19;3626668;39;20054;-63
2021/05/19 07:36:16;;;;;;;508.55;189.10;;;;;;;20.79;77.53;98955.28;3626885;39;20083;-62
2021/05/19 07:38:44;;;;;;;178.68;66.85;;;;;;;20.75;77.16;98946.09;3621405;39;20661;-64
2021/05/19 07:41:11;;;;;;;40.75;22.98;;;;;;;20.95;76.71;98946.88;3618334;39;20046;-62
2021/05/19 07:43:38;;;;;;;92.45;58.13;;;;;;;21.10;76.47;98943.97;3626885;39;20083;-63
2021/05/19 07:46:06;;;;;;;18.83;13.98;;;;;;;21.07;76.42;98928.44;3626814;39;20047;-63
2021/05/19 07:48:32;;;;;;;110.85;94.43;;;;;;;21.36;76.46;98925.25;3627151;39;20053;-63
2021/05/19 07:50:58;;;;;;;24.45;21.88;;;;;;;21.44;75.89;98921.53;3626711;39;20039;-62
2021/05/19 07:53:24;;;;;;;26.77;24.08;;;;;;;21.42;75.52;98913.78;3626279;39;20023;-64
2021/05/19 07:58:31;;;;;;;16.98;12.90;;;;;;;21.85;71.93;98915.75;3626788;39;20110;-64
2021/05/19 08:03:31;;;;;;;198.90;96.63;;;;;;;22.45;69.90;98899.28;3627054;39;20627;-65
2021/05/19 08:05:58;;;;;;;180.05;132.32;;;;;;;22.58;71.58;98893.00;3627133;39;20050;-68
2021/05/19 08:08:24;;;;;;;45.40;36.38;;;;;;;22.56;72.63;98889.75;3626364;39;20325;-64
2021/05/19 08:10:51;;;;;;;17.90;14.10;;;;;;;22.95;70.13;98891.16;3626601;39;20038;-65
2021/05/19 08:13:17;;;;;;;14.13;11.98;;;;;;;23.00;69.49;98877.97;3627179;39;20063;-65
2021/05/19 08:15:43;;;;;;;12.40;9.48;;;;;;;23.28;69.26;98877.41;3626687;39;20119;-65
2021/05/19 08:18:12;;;;;;;11.38;10.02;;;;;;;23.14;67.54;98883.97;3626931;39;20398;-65
2021/05/19 08:20:39;;;;;;;15.00;13.55;;;;;;;23.14;68.06;98881.28;3626827;39;20054;-65
2021/05/19 08:23:07;;;;;;;20.80;17.23;;;;;;;22.94;67.42;98873.56;3626778;39;20408;-64
2021/05/19 08:25:34;;;;;;;1488.38;661.75;;;;;;;23.00;67.77;98880.63;3626613;39;20061;-65
2021/05/19 08:28:01;;;;;;;33.92;20.77;;;;;;;23.23;67.87;98867.41;3626502;39;20316;-64
2021/05/19 08:30:29;;;;;;;12.63;10.02;;;;;;;23.30;66.15;98867.31;3626917;39;20047;-64
2021/05/19 08:32:57;;;;;;;10.10;9.13;;;;;;;23.36;68.71;98862.91;3626442;39;20397;-64
2021/05/19 08:35:24;;;;;;;10.45;8.70;;;;;;;23.56;67.93;98868.78;3626321;39;20138;-68
2021/05/19 08:37:52;;;;;;;11.60;8.45;;;;;;;23.75;66.29;98867.69;3620084;39;20047;-64
2021/05/19 08:40:19;;;;;;;9.20;8.05;;;;;;;23.79;67.22;98873.41;3616771;39;20059;-65
2021/05/19 08:42:48;;;;;;;10.10;8.05;;;;;;;23.63;66.50;98869.50;3626658;39;20059;-64
2021/05/19 08:45:16;;;;;;;9.48;7.55;;;;;;;23.80;64.51;98875.03;3625826;39;20049;-65
2021/05/19 08:47:43;;;;;;;9.25;8.13;;;;;;;23.77;65.47;98862.94;3626400;39;20381;-64
2021/05/19 08:50:13;;;;;;;8.90;8.00;;;;;;;23.86;65.51;98865.28;3622351;39;20051;-65
2021/05/19 08:52:46;;;;;;;10.18;8.80;;;;;;;24.05;64.55;98868.66;3617371;39;20059;-64
2021/05/19 08:55:19;;;;;;;14.82;8.60;;;;;;;24.13;64.55;98868.31;3617526;39;20044;-64
2021/05/19 08:57:47;;;;;;;12.00;8.35;;;;;;;24.15;63.11;98863.53;3617471;39;20059;-64
2021/05/19 09:00:15;;;;;;;9.05;7.35;;;;;;;24.20;63.58;98860.97;3617369;39;20308;-64
2021/05/19 09:03:12;;;;;;;11.05;7.78;;;;;;;24.32;64.51;98852.97;3608067;39;20158;-65
2021/05/19 09:05:42;;;;;;;11.90;7.95;;;;;;;24.45;63.46;98852.72;3626417;39;20062;-63
2021/05/19 09:08:17;;;;;;;12.13;8.25;;;;;;;24.40;63.45;98857.97;3618633;39;20054;-64
2021/05/19 09:10:57;;;;;;;9.68;8.02;;;;;;;24.35;62.22;98861.31;3628050;39;20428;-63
2021/05/19 09:13:45;;;;;;;10.93;7.57;;;;;;;24.15;62.09;98864.34;3628225;39;20119;-63
2021/05/19 09:16:25;;;;;;;12.10;7.82;;;;;;;24.33;61.55;98878.66;3627922;39;20043;-64
2021/05/19 09:18:55;;;;;;;12.18;7.18;;;;;;;24.51;62.79;98876.69;3609005;39;20051;-64
2021/05/19 09:21:36;;;;;;;14.45;7.13;;;;;;;24.45;59.22;98876.78;3618784;39;20083;-64
2021/05/19 09:24:31;;;;;;;14.82;7.50;;;;;;;24.39;60.40;98859.84;3618856;39;20127;-63
2021/05/19 09:27:03;;;;;;;10.68;7.40;;;;;;;24.65;61.52;98877.25;3616925;39;20034;-63
2021/05/19 09:29:33;;;;;;;11.98;7.47;;;;;;;24.92;60.73;98868.66;3627874;39;20050;-68
2021/05/19 09:32:09;;;;;;;13.32;7.55;;;;;;;25.14;61.51;98871.53;3627601;39;20050;-66
2021/05/19 09:34:38;;;;;;;11.55;7.18;;;;;;;25.41;60.51;98872.59;3627942;39;20046;-65
2021/05/19 09:37:25;;;;;;;7.63;6.65;;;;;;;25.64;58.47;98860.13;3627455;39;20051;-64
2021/05/19 09:40:09;;;;;;;9.40;6.28;;;;;;;25.93;60.11;98856.34;3618492;39;20047;-65
2021/05/19 09:42:36;;;;;;;;;;;;;;;25.98;56.55;98845.69;3627269;39;20062;-67
2021/05/19 09:45:32;;;;;;;8.77;6.30;;;;;;;26.17;59.63;98840.06;3627767;39;19986;-64
2021/05/19 09:48:00;;;;;;;8.48;6.05;;;;;;;26.22;61.97;98838.28;3627840;39;20317;-63
2021/05/19 09:50:33;;;;;;;19.67;7.40;;;;;;;26.41;57.88;98830.75;3618597;39;20047;-64
2021/05/19 09:53:05;;;;;;;13.85;7.60;;;;;;;26.43;58.63;98830.53;3618474;39;20039;-66
2021/05/19 09:55:34;;;;;;;8.48;6.57;;;;;;;26.48;55.21;98818.00;3618314;39;20082;-65
2021/05/19 09:58:03;;;;;;;11.50;6.38;;;;;;;26.61;57.09;98813.31;3618425;39;20053;-64
2021/05/19 10:00:31;;;;;;;13.45;7.43;;;;;;;26.51;56.47;98811.34;3618649;39;20050;-65
2021/05/19 10:03:01;;;;;;;9.90;5.78;;;;;;;26.45;56.30;98793.56;3618918;39;20124;-64
2021/05/19 10:06:07;;;;;;;9.90;5.72;;;;;;;26.39;57.31;98789.16;3618460;39;20055;-64
2021/05/19 10:08:22;;;;;;;10.60;5.70;;;;;;;26.62;57.24;98796.16;3623802;39;20046;-64
2021/05/19 10:10:50;;;;;;;10.85;6.25;;;;;;;26.77;56.84;98790.97;3618096;39;20122;-64
2021/05/19 10:13:22;;;;;;;11.73;6.45;;;;;;;26.73;54.21;98793.38;3627676;39;20065;-64
2021/05/19 10:15:52;;;;;;;10.10;6.65;;;;;;;26.63;53.98;98785.19;3618220;39;20320;-64
2021/05/19 10:18:24;;;;;;;9.20;5.70;;;;;;;26.53;55.12;98788.56;3618520;39;20047;-64
2021/05/19 10:20:55;;;;;;;7.32;5.22;;;;;;;26.49;54.82;98766.00;3618609;39;20066;-63
2021/05/19 10:23:34;;;;;;;11.48;6.18;;;;;;;26.35;52.04;98775.44;3625573;39;20424;-65
2021/05/19 10:26:11;;;;;;;10.70;6.30;;;;;;;26.19;54.06;98770.94;3627286;39;20050;-64
2021/05/19 10:28:44;;;;;;;11.02;5.75;;;;;;;26.13;56.23;98770.06;3627764;39;20050;-70
2021/05/19 10:31:28;;;;;;;9.65;5.45;;;;;;;26.62;57.55;98770.16;3627879;39;20075;-64
2021/05/19 10:34:02;;;;;;;12.35;5.53;;;;;;;26.79;51.60;98754.78;3618041;39;20046;-64
2021/05/19 10:36:33;;;;;;;24.40;5.88;;;;;;;26.93;52.29;98749.84;3627520;39;20054;-64
2021/05/19 10:39:22;;;;;;;19.75;5.78;;;;;;;27.20;48.53;98740.97;3620328;39;20063;-64
2021/05/19 10:41:53;;;;;;;12.13;5.43;;;;;;;27.41;48.63;98736.56;3625702;39;20045;-63
2021/05/19 10:44:24;;;;;;;11.83;5.33;;;;;;;27.38;52.03;98734.41;3621101;39;20047;-64
2021/05/19 10:47:15;;;;;;;14.45;6.32;;;;;;;27.39;49.30;98728.75;3618473;39;20040;-64
2021/05/19 10:58:53;;;;;;;16.05;5.53;;;;;;;26.75;44.23;98731.41;3574898;40;20053;-68
2021/05/19 11:01:41;;;;;;;13.38;5.03;;;;;;;27.23;48.01;98727.84;3616355;39;20069;-63
2021/05/19 11:04:17;;;;;;;12.57;5.65;;;;;;;27.73;49.79;98732.00;3626694;39;20047;-64
2021/05/19 11:06:57;;;;;;;14.93;5.00;;;;;;;27.63;41.69;98723.84;3627586;39;20058;-64
2021/05/19 11:09:40;;;;;;;14.68;4.63;;;;;;;27.61;41.83;98720.59;3617919;39;20065;-64
2021/05/19 11:12:17;;;;;;;13.73;4.88;;;;;;;27.84;38.99;98724.00;3618415;39;20150;-64
2021/05/19 11:14:48;;;;;;;14.15;4.38;;;;;;;27.48;39.03;98716.47;3625992;39;20107;-64
2021/05/19 11:17:31;;;;;;;23.98;4.55;;;;;;;27.26;37.73;98715.78;3627048;39;20066;-66
2021/05/19 11:19:58;;;;;;;22.60;4.95;;;;;;;26.97;40.29;98721.44;3627193;39;20062;-63
2021/05/19 11:22:26;;;;;;;13.73;4.13;;;;;;;26.93;41.13;98701.53;3627261;39;20082;-64
2021/05/19 11:24:58;;;;;;;13.93;4.22;;;;;;;27.15;38.91;98708.72;3626747;39;20058;-64
2021/05/19 11:27:30;;;;;;;10.27;4.72;;;;;;;27.18;36.40;98705.53;3626626;39;20043;-63
2021/05/19 11:29:58;;;;;;;14.82;4.70;;;;;;;27.49;38.65;98695.81;3627171;39;20038;-64
2021/05/19 11:32:29;;;;;;;15.10;4.57;;;;;;;27.91;38.68;98700.38;3626987;39;20057;-64
2021/05/19 11:35:13;;;;;;;16.50;4.03;;;;;;;28.28;37.54;98701.06;3627250;39;20050;-64
2021/05/19 11:38:03;;;;;;;18.10;4.40;;;;;;;28.56;36.44;98699.00;3619927;39;20313;-67
2021/05/19 11:40:56;;;;;;;17.83;4.00;;;;;;;28.47;35.66;98692.53;3626911;39;20066;-64
2021/05/19 11:43:23;;;;;;;13.18;4.60;;;;;;;28.82;38.89;98694.50;3616249;39;20043;-65
2021/05/19 11:45:58;;;;;;;12.00;4.30;;;;;;;29.03;33.14;98703.41;3617941;39;20047;-65
2021/05/19 11:48:30;;;;;;;18.52;4.70;;;;;;;29.29;35.65;98696.94;3618038;39;20318;-64
2021/05/19 11:51:24;;;;;;;11.60;4.43;;;;;;;28.86;31.71;98703.63;3618220;39;20050;-64
2021/05/19 11:54:00;;;;;;;20.98;5.07;;;;;;;29.01;31.38;98690.22;3617868;39;20036;-66
2021/05/19 11:56:49;;;;;;;16.30;4.47;;;;;;;29.11;29.77;98689.41;3617833;39;20051;-65
2021/05/19 11:59:24;;;;;;;17.67;4.43;;;;;;;29.31;33.30;98686.69;3626482;39;20050;-65
2021/05/19 12:02:07;;;;;;;15.15;4.47;;;;;;;29.62;33.37;98689.38;3617896;39;20055;-65